sensor_id;sensor_type;location;lat;lon;timestamp;P1;durP1;ratioP1;P2;durP2;ratioP2
14686;SDS011;7431;49.440;11.084;2024-02-26T00:02:16;3.80;;;2.67;;
14686;SDS011;7431;49.440;11.084;2024-02-26T00:04:42;4.00;;;3.00;;
14686;SDS011;7431;49.440;11.084;2024-02-26T00:07:09;4.27;;;2.80;;
14686;SDS011;7431;49.440;11.084;2024-02-26T00:09:35;4.20;;;2.60;;
14686;SDS011;7431;49.440;11.084;2024-02-26T00:12:02;3.73;;;2.27;;
14686;SDS011;7431;49.440;11.084;2024-02-26T00:14:29;3.70;;;2.73;;
14686;SDS011;7431;49.440;11.084;2024-02-26T00:16:55;4.20;;;2.30;;
14686;SDS011;7431;49.440;11.084;2024-02-26T00:19:21;4.57;;;2.47;;
14686;SDS011;7431;49.440;11.084;2024-02-26T00:21:47;4.33;;;2.53;;
14686;SDS011;7431;49.440;11.084;2024-02-26T00:24:12;6.33;;;2.73;;
14686;SDS011;7431;49.440;11.084;2024-02-26T00:26:39;3.63;;;2.77;;
14686;SDS011;7431;49.440;11.084;2024-02-26T00:29:05;3.30;;;2.60;;
14686;SDS011;7431;49.440;11.084;2024-02-26T00:31:31;3.10;;;2.10;;
14686;SDS011;7431;49.440;11.084;2024-02-26T00:33:57;3.07;;;2.43;;
14686;SDS011;7431;49.440;11.084;2024-02-26T00:36:23;3.13;;;2.60;;
14686;SDS011;7431;49.440;11.084;2024-02-26T00:38:49;3.87;;;2.87;;
14686;SDS011;7431;49.440;11.084;2024-02-26T00:41:18;4.30;;;3.20;;
14686;SDS011;7431;49.440;11.084;2024-02-26T00:43:44;3.83;;;2.80;;
14686;SDS011;7431;49.440;11.084;2024-02-26T00:46:10;4.10;;;2.73;;
14686;SDS011;7431;49.440;11.084;2024-02-26T00:48:36;4.87;;;2.70;;
14686;SDS011;7431;49.440;11.084;2024-02-26T00:51:02;5.37;;;2.87;;
14686;SDS011;7431;49.440;11.084;2024-02-26T00:53:30;5.50;;;2.97;;
14686;SDS011;7431;49.440;11.084;2024-02-26T00:55:56;4.40;;;2.80;;
14686;SDS011;7431;49.440;11.084;2024-02-26T00:58:24;4.23;;;3.57;;
14686;SDS011;7431;49.440;11.084;2024-02-26T01:00:49;4.60;;;2.73;;
14686;SDS011;7431;49.440;11.084;2024-02-26T01:03:16;5.53;;;3.50;;
14686;SDS011;7431;49.440;11.084;2024-02-26T01:05:42;6.00;;;3.40;;
14686;SDS011;7431;49.440;11.084;2024-02-26T01:08:08;6.47;;;3.80;;
14686;SDS011;7431;49.440;11.084;2024-02-26T01:10:34;5.17;;;3.60;;
14686;SDS011;7431;49.440;11.084;2024-02-26T01:13:01;5.23;;;3.30;;
14686;SDS011;7431;49.440;11.084;2024-02-26T01:15:27;4.80;;;3.70;;
14686;SDS011;7431;49.440;11.084;2024-02-26T01:17:53;5.97;;;3.60;;
14686;SDS011;7431;49.440;11.084;2024-02-26T01:20:19;5.97;;;3.37;;
14686;SDS011;7431;49.440;11.084;2024-02-26T01:22:44;6.00;;;3.77;;
14686;SDS011;7431;49.440;11.084;2024-02-26T01:25:12;6.00;;;3.73;;
14686;SDS011;7431;49.440;11.084;2024-02-26T01:27:39;7.13;;;3.90;;
14686;SDS011;7431;49.440;11.084;2024-02-26T01:30:07;4.40;;;3.17;;
14686;SDS011;7431;49.440;11.084;2024-02-26T01:32:33;6.90;;;3.47;;
14686;SDS011;7431;49.440;11.084;2024-02-26T01:35:01;7.50;;;4.50;;
14686;SDS011;7431;49.440;11.084;2024-02-26T01:37:28;4.60;;;3.97;;
14686;SDS011;7431;49.440;11.084;2024-02-26T01:39:57;6.20;;;4.10;;
14686;SDS011;7431;49.440;11.084;2024-02-26T01:42:23;6.53;;;3.67;;
14686;SDS011;7431;49.440;11.084;2024-02-26T01:44:49;5.93;;;3.87;;
14686;SDS011;7431;49.440;11.084;2024-02-26T01:47:15;8.23;;;4.80;;
14686;SDS011;7431;49.440;11.084;2024-02-26T01:49:41;6.13;;;4.03;;
14686;SDS011;7431;49.440;11.084;2024-02-26T01:52:07;6.07;;;4.30;;
14686;SDS011;7431;49.440;11.084;2024-02-26T01:54:34;5.23;;;4.30;;
14686;SDS011;7431;49.440;11.084;2024-02-26T01:57:00;7.73;;;4.90;;
14686;SDS011;7431;49.440;11.084;2024-02-26T01:59:27;10.63;;;4.43;;
14686;SDS011;7431;49.440;11.084;2024-02-26T02:01:55;7.03;;;4.27;;
14686;SDS011;7431;49.440;11.084;2024-02-26T02:04:21;5.80;;;4.43;;
14686;SDS011;7431;49.440;11.084;2024-02-26T02:06:48;6.07;;;3.90;;
14686;SDS011;7431;49.440;11.084;2024-02-26T02:09:14;10.77;;;4.73;;
14686;SDS011;7431;49.440;11.084;2024-02-26T02:11:40;6.07;;;4.70;;
14686;SDS011;7431;49.440;11.084;2024-02-26T02:14:07;7.97;;;4.90;;
14686;SDS011;7431;49.440;11.084;2024-02-26T02:16:33;9.17;;;4.93;;
14686;SDS011;7431;49.440;11.084;2024-02-26T02:18:59;9.27;;;5.80;;
14686;SDS011;7431;49.440;11.084;2024-02-26T02:21:25;8.03;;;5.40;;
14686;SDS011;7431;49.440;11.084;2024-02-26T02:23:51;7.50;;;4.27;;
14686;SDS011;7431;49.440;11.084;2024-02-26T02:26:17;8.37;;;5.27;;
14686;SDS011;7431;49.440;11.084;2024-02-26T02:28:43;7.40;;;5.20;;
14686;SDS011;7431;49.440;11.084;2024-02-26T02:31:10;7.40;;;5.07;;
14686;SDS011;7431;49.440;11.084;2024-02-26T02:33:36;9.73;;;6.20;;
14686;SDS011;7431;49.440;11.084;2024-02-26T02:36:02;9.50;;;5.07;;
14686;SDS011;7431;49.440;11.084;2024-02-26T02:38:28;9.63;;;4.97;;
14686;SDS011;7431;49.440;11.084;2024-02-26T02:40:55;7.53;;;4.73;;
14686;SDS011;7431;49.440;11.084;2024-02-26T02:43:21;10.57;;;5.63;;
14686;SDS011;7431;49.440;11.084;2024-02-26T02:45:47;6.60;;;4.40;;
14686;SDS011;7431;49.440;11.084;2024-02-26T02:48:13;7.77;;;5.07;;
14686;SDS011;7431;49.440;11.084;2024-02-26T02:50:39;6.93;;;4.77;;
14686;SDS011;7431;49.440;11.084;2024-02-26T02:53:06;11.00;;;5.83;;
14686;SDS011;7431;49.440;11.084;2024-02-26T02:55:32;8.53;;;5.00;;
14686;SDS011;7431;49.440;11.084;2024-02-26T02:57:58;9.20;;;5.47;;
14686;SDS011;7431;49.440;11.084;2024-02-26T03:00:24;8.57;;;5.63;;
14686;SDS011;7431;49.440;11.084;2024-02-26T03:02:50;7.23;;;4.60;;
14686;SDS011;7431;49.440;11.084;2024-02-26T03:05:16;9.73;;;4.87;;
14686;SDS011;7431;49.440;11.084;2024-02-26T03:07:42;8.27;;;5.17;;
14686;SDS011;7431;49.440;11.084;2024-02-26T03:10:08;10.07;;;4.90;;
14686;SDS011;7431;49.440;11.084;2024-02-26T03:12:34;7.53;;;4.90;;
14686;SDS011;7431;49.440;11.084;2024-02-26T03:15:00;7.53;;;4.43;;
14686;SDS011;7431;49.440;11.084;2024-02-26T03:17:28;8.90;;;4.80;;
14686;SDS011;7431;49.440;11.084;2024-02-26T03:19:54;6.60;;;4.57;;
14686;SDS011;7431;49.440;11.084;2024-02-26T03:22:20;7.37;;;4.90;;
14686;SDS011;7431;49.440;11.084;2024-02-26T03:24:46;7.00;;;4.57;;
14686;SDS011;7431;49.440;11.084;2024-02-26T03:27:13;9.57;;;4.97;;
14686;SDS011;7431;49.440;11.084;2024-02-26T03:29:39;8.07;;;5.13;;
14686;SDS011;7431;49.440;11.084;2024-02-26T03:32:06;8.17;;;4.90;;
14686;SDS011;7431;49.440;11.084;2024-02-26T03:34:32;9.03;;;4.87;;
14686;SDS011;7431;49.440;11.084;2024-02-26T03:37:01;7.07;;;4.17;;
14686;SDS011;7431;49.440;11.084;2024-02-26T03:39:27;7.43;;;4.03;;
14686;SDS011;7431;49.440;11.084;2024-02-26T03:41:53;5.87;;;4.10;;
14686;SDS011;7431;49.440;11.084;2024-02-26T03:44:19;7.60;;;4.53;;
14686;SDS011;7431;49.440;11.084;2024-02-26T03:46:45;5.87;;;4.03;;
14686;SDS011;7431;49.440;11.084;2024-02-26T03:49:12;7.57;;;4.83;;
14686;SDS011;7431;49.440;11.084;2024-02-26T03:51:38;6.33;;;4.07;;
14686;SDS011;7431;49.440;11.084;2024-02-26T03:54:04;6.07;;;4.00;;
14686;SDS011;7431;49.440;11.084;2024-02-26T03:56:30;5.67;;;3.60;;
14686;SDS011;7431;49.440;11.084;2024-02-26T03:58:56;7.53;;;4.30;;
14686;SDS011;7431;49.440;11.084;2024-02-26T04:01:24;7.63;;;4.57;;
14686;SDS011;7431;49.440;11.084;2024-02-26T04:03:50;7.17;;;4.10;;
14686;SDS011;7431;49.440;11.084;2024-02-26T04:06:17;6.63;;;4.17;;
14686;SDS011;7431;49.440;11.084;2024-02-26T04:08:45;5.93;;;3.83;;
14686;SDS011;7431;49.440;11.084;2024-02-26T04:11:11;7.10;;;4.83;;
14686;SDS011;7431;49.440;11.084;2024-02-26T04:13:37;7.33;;;4.57;;
14686;SDS011;7431;49.440;11.084;2024-02-26T04:16:04;6.20;;;4.20;;
14686;SDS011;7431;49.440;11.084;2024-02-26T04:18:30;6.73;;;4.43;;
14686;SDS011;7431;49.440;11.084;2024-02-26T04:20:56;7.77;;;4.47;;
14686;SDS011;7431;49.440;11.084;2024-02-26T04:23:22;5.77;;;4.33;;
14686;SDS011;7431;49.440;11.084;2024-02-26T04:25:48;8.43;;;4.80;;
14686;SDS011;7431;49.440;11.084;2024-02-26T04:28:14;5.33;;;4.17;;
14686;SDS011;7431;49.440;11.084;2024-02-26T04:30:40;6.60;;;4.00;;
14686;SDS011;7431;49.440;11.084;2024-02-26T04:33:06;8.47;;;3.70;;
14686;SDS011;7431;49.440;11.084;2024-02-26T04:35:32;7.20;;;4.13;;
14686;SDS011;7431;49.440;11.084;2024-02-26T04:38:00;8.20;;;4.93;;
14686;SDS011;7431;49.440;11.084;2024-02-26T04:40:26;7.47;;;4.17;;
14686;SDS011;7431;49.440;11.084;2024-02-26T04:42:52;6.33;;;4.47;;
14686;SDS011;7431;49.440;11.084;2024-02-26T04:45:18;4.87;;;3.40;;
14686;SDS011;7431;49.440;11.084;2024-02-26T04:47:44;6.33;;;3.40;;
14686;SDS011;7431;49.440;11.084;2024-02-26T04:50:10;5.37;;;3.53;;
14686;SDS011;7431;49.440;11.084;2024-02-26T04:52:36;6.13;;;3.67;;
14686;SDS011;7431;49.440;11.084;2024-02-26T04:55:03;4.03;;;3.53;;
14686;SDS011;7431;49.440;11.084;2024-02-26T04:57:38;6.17;;;4.17;;
14686;SDS011;7431;49.440;11.084;2024-02-26T05:00:04;5.33;;;3.80;;
14686;SDS011;7431;49.440;11.084;2024-02-26T05:02:33;6.70;;;3.47;;
14686;SDS011;7431;49.440;11.084;2024-02-26T05:05:03;4.43;;;3.67;;
14686;SDS011;7431;49.440;11.084;2024-02-26T05:07:29;5.20;;;3.37;;
14686;SDS011;7431;49.440;11.084;2024-02-26T05:09:55;5.20;;;3.73;;
14686;SDS011;7431;49.440;11.084;2024-02-26T05:12:21;5.00;;;3.53;;
14686;SDS011;7431;49.440;11.084;2024-02-26T05:14:47;4.23;;;3.23;;
14686;SDS011;7431;49.440;11.084;2024-02-26T05:17:13;5.10;;;3.43;;
14686;SDS011;7431;49.440;11.084;2024-02-26T05:19:39;6.83;;;3.30;;
14686;SDS011;7431;49.440;11.084;2024-02-26T05:22:05;4.73;;;3.10;;
14686;SDS011;7431;49.440;11.084;2024-02-26T05:24:34;6.27;;;3.33;;
14686;SDS011;7431;49.440;11.084;2024-02-26T05:27:00;4.27;;;3.43;;
14686;SDS011;7431;49.440;11.084;2024-02-26T05:29:26;3.93;;;2.90;;
14686;SDS011;7431;49.440;11.084;2024-02-26T05:31:52;4.27;;;3.00;;
14686;SDS011;7431;49.440;11.084;2024-02-26T05:34:19;3.53;;;3.00;;
14686;SDS011;7431;49.440;11.084;2024-02-26T05:36:45;3.83;;;2.60;;
14686;SDS011;7431;49.440;11.084;2024-02-26T05:39:11;4.80;;;3.00;;
14686;SDS011;7431;49.440;11.084;2024-02-26T05:41:37;3.90;;;2.77;;
14686;SDS011;7431;49.440;11.084;2024-02-26T05:44:04;4.97;;;2.90;;
14686;SDS011;7431;49.440;11.084;2024-02-26T05:46:30;3.63;;;2.63;;
14686;SDS011;7431;49.440;11.084;2024-02-26T05:48:56;4.77;;;2.33;;
14686;SDS011;7431;49.440;11.084;2024-02-26T05:51:22;5.60;;;3.17;;
14686;SDS011;7431;49.440;11.084;2024-02-26T05:53:48;4.90;;;2.50;;
14686;SDS011;7431;49.440;11.084;2024-02-26T05:56:19;3.23;;;2.50;;
14686;SDS011;7431;49.440;11.084;2024-02-26T05:58:44;4.00;;;2.63;;
14686;SDS011;7431;49.440;11.084;2024-02-26T06:01:10;3.93;;;2.77;;
14686;SDS011;7431;49.440;11.084;2024-02-26T06:03:36;3.57;;;2.63;;
14686;SDS011;7431;49.440;11.084;2024-02-26T06:06:02;3.37;;;2.80;;
14686;SDS011;7431;49.440;11.084;2024-02-26T06:08:28;2.60;;;2.17;;
14686;SDS011;7431;49.440;11.084;2024-02-26T06:10:54;3.20;;;2.30;;
14686;SDS011;7431;49.440;11.084;2024-02-26T06:13:23;4.40;;;2.77;;
14686;SDS011;7431;49.440;11.084;2024-02-26T06:15:49;5.87;;;3.17;;
14686;SDS011;7431;49.440;11.084;2024-02-26T06:18:15;4.10;;;2.73;;
14686;SDS011;7431;49.440;11.084;2024-02-26T06:20:41;4.20;;;2.70;;
14686;SDS011;7431;49.440;11.084;2024-02-26T06:23:07;3.50;;;2.70;;
14686;SDS011;7431;49.440;11.084;2024-02-26T06:25:35;4.27;;;3.33;;
14686;SDS011;7431;49.440;11.084;2024-02-26T06:28:00;7.27;;;3.17;;
14686;SDS011;7431;49.440;11.084;2024-02-26T06:30:26;4.33;;;3.03;;
14686;SDS011;7431;49.440;11.084;2024-02-26T06:32:52;3.17;;;2.87;;
14686;SDS011;7431;49.440;11.084;2024-02-26T06:35:18;4.87;;;3.27;;
14686;SDS011;7431;49.440;11.084;2024-02-26T06:37:44;3.97;;;3.03;;
14686;SDS011;7431;49.440;11.084;2024-02-26T06:40:10;5.10;;;2.93;;
14686;SDS011;7431;49.440;11.084;2024-02-26T06:42:36;5.93;;;3.40;;
14686;SDS011;7431;49.440;11.084;2024-02-26T06:45:03;5.87;;;3.40;;
14686;SDS011;7431;49.440;11.084;2024-02-26T06:47:29;2.60;;;2.40;;
14686;SDS011;7431;49.440;11.084;2024-02-26T06:49:55;4.97;;;2.30;;
14686;SDS011;7431;49.440;11.084;2024-02-26T06:52:23;3.47;;;2.47;;
14686;SDS011;7431;49.440;11.084;2024-02-26T06:54:50;3.87;;;2.60;;
14686;SDS011;7431;49.440;11.084;2024-02-26T06:57:17;3.93;;;2.80;;
14686;SDS011;7431;49.440;11.084;2024-02-26T06:59:43;3.60;;;2.60;;
14686;SDS011;7431;49.440;11.084;2024-02-26T07:02:12;2.40;;;2.20;;
14686;SDS011;7431;49.440;11.084;2024-02-26T07:04:38;6.30;;;2.87;;
14686;SDS011;7431;49.440;11.084;2024-02-26T07:07:04;3.40;;;3.10;;
14686;SDS011;7431;49.440;11.084;2024-02-26T07:09:30;3.47;;;2.80;;
14686;SDS011;7431;49.440;11.084;2024-02-26T07:11:56;4.17;;;2.67;;
14686;SDS011;7431;49.440;11.084;2024-02-26T07:14:22;4.70;;;2.53;;
14686;SDS011;7431;49.440;11.084;2024-02-26T07:16:49;3.70;;;2.97;;
14686;SDS011;7431;49.440;11.084;2024-02-26T07:19:15;4.63;;;2.80;;
14686;SDS011;7431;49.440;11.084;2024-02-26T07:21:41;4.30;;;2.57;;
14686;SDS011;7431;49.440;11.084;2024-02-26T07:24:07;4.33;;;2.50;;
14686;SDS011;7431;49.440;11.084;2024-02-26T07:26:33;5.00;;;2.97;;
14686;SDS011;7431;49.440;11.084;2024-02-26T07:28:59;3.17;;;2.40;;
14686;SDS011;7431;49.440;11.084;2024-02-26T07:31:26;3.63;;;2.40;;
14686;SDS011;7431;49.440;11.084;2024-02-26T07:33:52;3.37;;;2.50;;
14686;SDS011;7431;49.440;11.084;2024-02-26T07:36:18;3.70;;;2.63;;
14686;SDS011;7431;49.440;11.084;2024-02-26T07:38:44;3.27;;;2.27;;
14686;SDS011;7431;49.440;11.084;2024-02-26T07:41:10;3.57;;;2.50;;
14686;SDS011;7431;49.440;11.084;2024-02-26T07:43:37;3.97;;;2.37;;
14686;SDS011;7431;49.440;11.084;2024-02-26T07:46:03;3.73;;;2.27;;
14686;SDS011;7431;49.440;11.084;2024-02-26T07:48:29;3.83;;;3.17;;
14686;SDS011;7431;49.440;11.084;2024-02-26T07:50:55;3.60;;;2.30;;
14686;SDS011;7431;49.440;11.084;2024-02-26T07:53:21;7.80;;;2.60;;
14686;SDS011;7431;49.440;11.084;2024-02-26T07:55:47;4.87;;;2.53;;
14686;SDS011;7431;49.440;11.084;2024-02-26T07:58:13;3.90;;;2.53;;
14686;SDS011;7431;49.440;11.084;2024-02-26T08:00:39;3.80;;;2.43;;
14686;SDS011;7431;49.440;11.084;2024-02-26T08:03:05;3.90;;;2.70;;
14686;SDS011;7431;49.440;11.084;2024-02-26T08:05:30;3.67;;;3.37;;
14686;SDS011;7431;49.440;11.084;2024-02-26T08:07:56;4.20;;;2.83;;
14686;SDS011;7431;49.440;11.084;2024-02-26T08:10:22;3.97;;;2.53;;
14686;SDS011;7431;49.440;11.084;2024-02-26T08:12:48;2.93;;;2.20;;
14686;SDS011;7431;49.440;11.084;2024-02-26T08:15:14;2.33;;;2.13;;
14686;SDS011;7431;49.440;11.084;2024-02-26T08:17:40;3.73;;;2.03;;
14686;SDS011;7431;49.440;11.084;2024-02-26T08:20:06;3.07;;;2.37;;
14686;SDS011;7431;49.440;11.084;2024-02-26T08:22:33;3.20;;;2.43;;
14686;SDS011;7431;49.440;11.084;2024-02-26T08:24:59;2.63;;;2.00;;
14686;SDS011;7431;49.440;11.084;2024-02-26T08:27:28;2.83;;;2.13;;
14686;SDS011;7431;49.440;11.084;2024-02-26T08:29:53;2.60;;;2.13;;
14686;SDS011;7431;49.440;11.084;2024-02-26T08:32:19;2.03;;;1.83;;
14686;SDS011;7431;49.440;11.084;2024-02-26T08:34:45;2.77;;;2.00;;
14686;SDS011;7431;49.440;11.084;2024-02-26T08:37:11;3.37;;;2.93;;
14686;SDS011;7431;49.440;11.084;2024-02-26T08:39:37;2.83;;;2.27;;
14686;SDS011;7431;49.440;11.084;2024-02-26T08:42:04;3.50;;;2.30;;
14686;SDS011;7431;49.440;11.084;2024-02-26T08:44:31;2.60;;;2.33;;
14686;SDS011;7431;49.440;11.084;2024-02-26T08:46:56;3.20;;;2.07;;
14686;SDS011;7431;49.440;11.084;2024-02-26T08:49:23;3.57;;;1.90;;
14686;SDS011;7431;49.440;11.084;2024-02-26T08:51:49;2.70;;;2.03;;
14686;SDS011;7431;49.440;11.084;2024-02-26T08:54:15;2.47;;;2.00;;
14686;SDS011;7431;49.440;11.084;2024-02-26T08:56:41;3.10;;;2.30;;
14686;SDS011;7431;49.440;11.084;2024-02-26T08:59:07;2.90;;;2.00;;
14686;SDS011;7431;49.440;11.084;2024-02-26T09:01:33;2.20;;;2.00;;
14686;SDS011;7431;49.440;11.084;2024-02-26T09:03:59;2.60;;;2.10;;
14686;SDS011;7431;49.440;11.084;2024-02-26T09:06:25;3.60;;;2.50;;
14686;SDS011;7431;49.440;11.084;2024-02-26T09:08:51;3.87;;;2.37;;
14686;SDS011;7431;49.440;11.084;2024-02-26T09:11:17;2.30;;;1.97;;
14686;SDS011;7431;49.440;11.084;2024-02-26T09:13:43;4.80;;;2.60;;
14686;SDS011;7431;49.440;11.084;2024-02-26T09:16:09;2.00;;;1.70;;
14686;SDS011;7431;49.440;11.084;2024-02-26T09:18:35;2.90;;;2.00;;
14686;SDS011;7431;49.440;11.084;2024-02-26T09:21:04;4.20;;;1.97;;
14686;SDS011;7431;49.440;11.084;2024-02-26T09:23:31;2.67;;;2.17;;
14686;SDS011;7431;49.440;11.084;2024-02-26T09:25:57;2.93;;;1.93;;
14686;SDS011;7431;49.440;11.084;2024-02-26T09:28:23;2.27;;;2.00;;
14686;SDS011;7431;49.440;11.084;2024-02-26T09:30:49;2.20;;;1.90;;
14686;SDS011;7431;49.440;11.084;2024-02-26T09:33:16;3.90;;;2.10;;
14686;SDS011;7431;49.440;11.084;2024-02-26T09:35:42;3.40;;;2.30;;
14686;SDS011;7431;49.440;11.084;2024-02-26T09:38:08;2.53;;;1.77;;
14686;SDS011;7431;49.440;11.084;2024-02-26T09:40:34;2.10;;;1.73;;
14686;SDS011;7431;49.440;11.084;2024-02-26T09:43:00;2.27;;;1.50;;
14686;SDS011;7431;49.440;11.084;2024-02-26T09:45:29;3.03;;;2.07;;
14686;SDS011;7431;49.440;11.084;2024-02-26T09:47:56;2.90;;;1.90;;
14686;SDS011;7431;49.440;11.084;2024-02-26T09:50:22;2.67;;;1.60;;
14686;SDS011;7431;49.440;11.084;2024-02-26T09:52:49;3.80;;;2.00;;
14686;SDS011;7431;49.440;11.084;2024-02-26T09:55:15;2.90;;;1.93;;
14686;SDS011;7431;49.440;11.084;2024-02-26T09:57:45;1.83;;;1.70;;
14686;SDS011;7431;49.440;11.084;2024-02-26T10:00:15;3.30;;;2.13;;
14686;SDS011;7431;49.440;11.084;2024-02-26T10:02:48;3.70;;;2.77;;
14686;SDS011;7431;49.440;11.084;2024-02-26T10:05:17;7.13;;;4.13;;
14686;SDS011;7431;49.440;11.084;2024-02-26T10:07:46;6.87;;;3.87;;
14686;SDS011;7431;49.440;11.084;2024-02-26T10:10:15;4.87;;;2.90;;
14686;SDS011;7431;49.440;11.084;2024-02-26T10:12:42;3.63;;;2.53;;
14686;SDS011;7431;49.440;11.084;2024-02-26T10:15:08;2.93;;;2.63;;
14686;SDS011;7431;49.440;11.084;2024-02-26T10:17:34;4.43;;;2.57;;
14686;SDS011;7431;49.440;11.084;2024-02-26T10:20:11;2.70;;;2.10;;
14686;SDS011;7431;49.440;11.084;2024-02-26T10:22:42;1.80;;;1.70;;
14686;SDS011;7431;49.440;11.084;2024-02-26T10:25:09;2.40;;;1.63;;
14686;SDS011;7431;49.440;11.084;2024-02-26T10:27:35;2.40;;;1.60;;
14686;SDS011;7431;49.440;11.084;2024-02-26T10:30:04;2.20;;;1.73;;
14686;SDS011;7431;49.440;11.084;2024-02-26T10:32:39;2.73;;;1.93;;
14686;SDS011;7431;49.440;11.084;2024-02-26T10:35:08;2.83;;;1.90;;
14686;SDS011;7431;49.440;11.084;2024-02-26T10:37:34;2.03;;;1.83;;
14686;SDS011;7431;49.440;11.084;2024-02-26T10:40:00;2.50;;;2.00;;
14686;SDS011;7431;49.440;11.084;2024-02-26T10:42:26;2.37;;;1.90;;
14686;SDS011;7431;49.440;11.084;2024-02-26T10:44:52;1.87;;;1.77;;
14686;SDS011;7431;49.440;11.084;2024-02-26T10:47:18;3.03;;;1.87;;
14686;SDS011;7431;49.440;11.084;2024-02-26T10:49:47;2.07;;;1.87;;
14686;SDS011;7431;49.440;11.084;2024-02-26T10:52:13;3.77;;;1.80;;
14686;SDS011;7431;49.440;11.084;2024-02-26T10:54:39;2.73;;;1.80;;
14686;SDS011;7431;49.440;11.084;2024-02-26T10:57:09;3.90;;;1.60;;
14686;SDS011;7431;49.440;11.084;2024-02-26T10:59:35;1.90;;;1.70;;
14686;SDS011;7431;49.440;11.084;2024-02-26T11:02:02;2.80;;;2.20;;
14686;SDS011;7431;49.440;11.084;2024-02-26T11:04:28;2.23;;;2.03;;
14686;SDS011;7431;49.440;11.084;2024-02-26T11:06:55;2.53;;;2.13;;
14686;SDS011;7431;49.440;11.084;2024-02-26T11:09:22;2.30;;;1.87;;
14686;SDS011;7431;49.440;11.084;2024-02-26T11:11:48;1.90;;;1.63;;
14686;SDS011;7431;49.440;11.084;2024-02-26T11:14:19;2.77;;;1.97;;
14686;SDS011;7431;49.440;11.084;2024-02-26T11:16:46;5.43;;;2.30;;
14686;SDS011;7431;49.440;11.084;2024-02-26T11:19:13;2.83;;;1.73;;
14686;SDS011;7431;49.440;11.084;2024-02-26T11:21:39;2.87;;;1.70;;
14686;SDS011;7431;49.440;11.084;2024-02-26T11:24:13;1.77;;;1.47;;
14686;SDS011;7431;49.440;11.084;2024-02-26T11:26:46;1.93;;;1.70;;
14686;SDS011;7431;49.440;11.084;2024-02-26T11:29:16;2.87;;;1.63;;
14686;SDS011;7431;49.440;11.084;2024-02-26T11:31:42;3.83;;;1.90;;
14686;SDS011;7431;49.440;11.084;2024-02-26T11:34:09;2.33;;;2.13;;
14686;SDS011;7431;49.440;11.084;2024-02-26T11:36:36;1.60;;;1.50;;
14686;SDS011;7431;49.440;11.084;2024-02-26T11:39:04;2.13;;;1.70;;
14686;SDS011;7431;49.440;11.084;2024-02-26T11:41:30;1.83;;;1.63;;
14686;SDS011;7431;49.440;11.084;2024-02-26T11:44:03;1.70;;;1.60;;
14686;SDS011;7431;49.440;11.084;2024-02-26T11:46:41;3.73;;;2.17;;
14686;SDS011;7431;49.440;11.084;2024-02-26T11:51:51;2.33;;;1.60;;
14686;SDS011;7431;49.440;11.084;2024-02-26T11:57:02;3.77;;;2.00;;
14686;SDS011;7431;49.440;11.084;2024-02-26T11:59:37;3.90;;;1.80;;
14686;SDS011;7431;49.440;11.084;2024-02-26T12:02:03;3.27;;;2.03;;
14686;SDS011;7431;49.440;11.084;2024-02-26T12:04:30;1.70;;;1.60;;
14686;SDS011;7431;49.440;11.084;2024-02-26T12:06:57;2.17;;;1.77;;
14686;SDS011;7431;49.440;11.084;2024-02-26T12:09:38;1.47;;;1.33;;
14686;SDS011;7431;49.440;11.084;2024-02-26T12:15:13;2.03;;;1.73;;
14686;SDS011;7431;49.440;11.084;2024-02-26T12:17:21;2.03;;;1.60;;
14686;SDS011;7431;49.440;11.084;2024-02-26T12:19:48;2.30;;;1.47;;
14686;SDS011;7431;49.440;11.084;2024-02-26T12:22:14;1.90;;;1.53;;
14686;SDS011;7431;49.440;11.084;2024-02-26T12:24:40;1.70;;;1.40;;
14686;SDS011;7431;49.440;11.084;2024-02-26T12:27:06;2.17;;;1.73;;
14686;SDS011;7431;49.440;11.084;2024-02-26T12:29:32;2.50;;;1.70;;
14686;SDS011;7431;49.440;11.084;2024-02-26T12:31:58;1.97;;;1.67;;
14686;SDS011;7431;49.440;11.084;2024-02-26T12:34:25;1.80;;;1.70;;
14686;SDS011;7431;49.440;11.084;2024-02-26T12:36:51;1.87;;;1.67;;
14686;SDS011;7431;49.440;11.084;2024-02-26T12:39:18;1.60;;;1.50;;
14686;SDS011;7431;49.440;11.084;2024-02-26T12:41:45;2.13;;;1.93;;
14686;SDS011;7431;49.440;11.084;2024-02-26T12:44:15;2.83;;;1.73;;
14686;SDS011;7431;49.440;11.084;2024-02-26T12:46:41;1.50;;;1.40;;
14686;SDS011;7431;49.440;11.084;2024-02-26T12:49:07;2.27;;;1.60;;
14686;SDS011;7431;49.440;11.084;2024-02-26T12:51:33;2.27;;;1.73;;
14686;SDS011;7431;49.440;11.084;2024-02-26T12:53:59;2.00;;;1.50;;
14686;SDS011;7431;49.440;11.084;2024-02-26T12:56:26;1.87;;;1.50;;
14686;SDS011;7431;49.440;11.084;2024-02-26T12:58:53;1.63;;;1.33;;
14686;SDS011;7431;49.440;11.084;2024-02-26T13:01:21;1.73;;;1.43;;
14686;SDS011;7431;49.440;11.084;2024-02-26T13:03:47;1.23;;;1.13;;
14686;SDS011;7431;49.440;11.084;2024-02-26T13:06:14;1.90;;;1.20;;
14686;SDS011;7431;49.440;11.084;2024-02-26T13:08:40;1.30;;;1.20;;
14686;SDS011;7431;49.440;11.084;2024-02-26T13:11:06;1.20;;;1.10;;
14686;SDS011;7431;49.440;11.084;2024-02-26T13:13:33;1.17;;;1.07;;
14686;SDS011;7431;49.440;11.084;2024-02-26T13:16:06;1.20;;;1.10;;
14686;SDS011;7431;49.440;11.084;2024-02-26T13:18:33;1.50;;;1.40;;
14686;SDS011;7431;49.440;11.084;2024-02-26T13:21:06;1.53;;;1.33;;
14686;SDS011;7431;49.440;11.084;2024-02-26T13:23:33;1.40;;;1.30;;
14686;SDS011;7431;49.440;11.084;2024-02-26T13:25:59;1.07;;;1.00;;
14686;SDS011;7431;49.440;11.084;2024-02-26T13:28:25;1.60;;;1.30;;
14686;SDS011;7431;49.440;11.084;2024-02-26T13:30:56;1.60;;;1.47;;
14686;SDS011;7431;49.440;11.084;2024-02-26T13:33:23;1.30;;;1.10;;
14686;SDS011;7431;49.440;11.084;2024-02-26T13:35:50;1.73;;;1.30;;
14686;SDS011;7431;49.440;11.084;2024-02-26T13:38:16;1.23;;;1.13;;
14686;SDS011;7431;49.440;11.084;2024-02-26T13:40:42;1.60;;;1.40;;
14686;SDS011;7431;49.440;11.084;2024-02-26T13:43:08;0.93;;;0.83;;
14686;SDS011;7431;49.440;11.084;2024-02-26T13:45:35;1.50;;;1.30;;
14686;SDS011;7431;49.440;11.084;2024-02-26T13:48:01;1.53;;;1.23;;
14686;SDS011;7431;49.440;11.084;2024-02-26T13:50:28;1.50;;;1.17;;
14686;SDS011;7431;49.440;11.084;2024-02-26T13:52:54;1.30;;;1.20;;
14686;SDS011;7431;49.440;11.084;2024-02-26T13:55:21;1.30;;;1.20;;
14686;SDS011;7431;49.440;11.084;2024-02-26T13:57:49;1.37;;;1.17;;
14686;SDS011;7431;49.440;11.084;2024-02-26T14:00:17;1.47;;;1.30;;
14686;SDS011;7431;49.440;11.084;2024-02-26T14:02:43;1.40;;;1.10;;
14686;SDS011;7431;49.440;11.084;2024-02-26T14:05:09;1.43;;;1.33;;
14686;SDS011;7431;49.440;11.084;2024-02-26T14:07:37;1.57;;;1.27;;
14686;SDS011;7431;49.440;11.084;2024-02-26T14:10:04;2.20;;;1.40;;
14686;SDS011;7431;49.440;11.084;2024-02-26T14:12:30;1.60;;;1.40;;
14686;SDS011;7431;49.440;11.084;2024-02-26T14:14:56;1.43;;;1.30;;
14686;SDS011;7431;49.440;11.084;2024-02-26T14:17:25;1.20;;;1.10;;
14686;SDS011;7431;49.440;11.084;2024-02-26T14:19:51;1.53;;;1.43;;
14686;SDS011;7431;49.440;11.084;2024-02-26T14:22:17;1.73;;;1.33;;
14686;SDS011;7431;49.440;11.084;2024-02-26T14:24:43;1.27;;;1.17;;
14686;SDS011;7431;49.440;11.084;2024-02-26T14:27:09;1.33;;;1.23;;
14686;SDS011;7431;49.440;11.084;2024-02-26T14:29:36;1.50;;;1.40;;
14686;SDS011;7431;49.440;11.084;2024-02-26T14:32:03;1.53;;;1.43;;
14686;SDS011;7431;49.440;11.084;2024-02-26T14:34:29;1.50;;;1.13;;
14686;SDS011;7431;49.440;11.084;2024-02-26T14:36:55;1.30;;;1.20;;
14686;SDS011;7431;49.440;11.084;2024-02-26T14:39:21;1.80;;;1.33;;
14686;SDS011;7431;49.440;11.084;2024-02-26T14:41:47;1.43;;;1.33;;
14686;SDS011;7431;49.440;11.084;2024-02-26T14:44:13;3.30;;;1.30;;
14686;SDS011;7431;49.440;11.084;2024-02-26T14:46:39;1.67;;;1.53;;
14686;SDS011;7431;49.440;11.084;2024-02-26T14:49:04;2.37;;;1.30;;
14686;SDS011;7431;49.440;11.084;2024-02-26T14:51:36;3.30;;;2.10;;
14686;SDS011;7431;49.440;11.084;2024-02-26T14:54:02;3.63;;;2.20;;